Time;durP1;ratioP1;P1;durP2;ratioP2;P2;SDS_P1;SDS_P2;PMS_P1;PMS_P2;Temp;Humidity;BMP_temperature;BMP_pressure;BME280_temperature;BME280_humidity;BME280_pressure;Samples;Min_cycle;Max_cycle;Signal;HPM_P1;HPM_P2
2023/10/12 00:02:26;;;;;;;;;;;;;;;;;;5026537;28;4995;-63
2023/10/12 00:05:00;;;;;;;;;;;;;;;;;;5026699;28;1910;-62
2023/10/12 00:10:40;;;;;;;;;;;;;;;;;;5034276;28;4960;-65
2023/10/12 00:13:06;;;;;;;;;;;;;;;;;;5036268;28;4896;-62
2023/10/12 00:15:37;;;;;;;;;;;;;;;;;;5049421;28;5014;-62
2023/10/12 00:18:38;;;;;;;;;;;;;;;;;;5025238;28;4641;-62
2023/10/12 00:24:06;;;;;;;;;;;;;;;;;;5021866;28;5079;-62
2023/10/12 00:26:32;;;;;;;;;;;;;;;;;;5025607;28;5207;-62
2023/10/12 00:28:57;;;;;;;;;;;;;;;;;;5030058;28;1097;-62
2023/10/12 00:31:32;;;;;;;;;;;;;;;;;;5039442;28;5070;-62
2023/10/12 00:33:58;;;;;;;;;;;;;;;;;;5024157;28;4853;-62
2023/10/12 00:36:24;;;;;;;;;;;;;;;;;;5025846;28;5128;-62
2023/10/12 00:38:51;;;;;;;;;;;;;;;;;;5032930;28;4529;-62
2023/10/12 00:44:26;;;;;;;;;;;;;;;;;;5044564;28;4943;-62
2023/10/12 00:49:23;;;;;;;;;;;;;;;;;;5015957;28;4798;-62
2023/10/12 00:55:13;;;;;;;;;;;;;;;;;;5012791;28;4962;-62
2023/10/12 00:57:38;;;;;;;;;;;;;;;;;;5034483;28;4616;-63
2023/10/12 01:00:15;;;;;;;;;;;;;;;;;;5035641;28;5101;-62
2023/10/12 01:02:40;;;;;;;;;;;;;;;;;;5032753;28;4944;-62
2023/10/12 01:05:06;;;;;;;;;;;;;;;;;;5038648;28;3453;-62
2023/10/12 01:07:36;;;;;;;;;;;;;;;;;;5034657;28;4912;-62
2023/10/12 01:10:10;;;;;;;;;;;;;;;;;;5050694;28;4493;-62
2023/10/12 01:12:35;;;;;;;;;;;;;;;;;;5032341;28;4550;-63
2023/10/12 01:15:11;;;;;;;;;;;;;;;;;;5025286;28;5109;-62
2023/10/12 01:17:42;;;;;;;;;;;;;;;;;;5017208;28;5075;-62
2023/10/12 01:32:37;;;;;;;;;;;;;;;;;;5037226;28;4857;-62
2023/10/12 01:38:08;;;;;;;;;;;;;;;;;;5016339;28;4699;-62
2023/10/12 01:43:43;;;;;;;;;;;;;;;;;;5011981;28;5022;-62
2023/10/12 01:55:16;;;;;;;;;;;;;;;;;;5028633;28;5203;-62
2023/10/12 01:57:51;;;;;;;;;;;;;;;;;;5023645;28;5066;-62
2023/10/12 02:00:21;;;;;;;;;;;;;;;;;;5026480;28;5190;-63
2023/10/12 02:02:53;;;;;;;;;;;;;;;;;;5027599;28;5953;-62
2023/10/12 02:05:24;;;;;;;;;;;;;;;;;;5000695;28;5109;-61
2023/10/12 02:07:52;;;;;;;;;;;;;;;;;;5015320;28;1120;-62
2023/10/12 02:10:18;;;;;;;;;;;;;;;;;;5034240;28;4820;-62
2023/10/12 02:12:45;;;;;;;;;;;;;;;;;;5021765;28;5008;-63
2023/10/12 02:15:15;;;;;;;;;;;;;;;;;;5020259;28;4959;-62
2023/10/12 02:17:42;;;;;;;;;;;;;;;;;;5017415;28;4919;-62
2023/10/12 02:23:12;;;;;;;;;;;;;;;;;;5029383;28;4689;-62
2023/10/12 02:25:44;;;;;;;;;;;;;;;;;;5032358;28;4890;-62
2023/10/12 02:28:09;;;;;;;;;;;;;;;;;;5034212;28;5014;-62
2023/10/12 02:39:57;;;;;;;;;;;;;;;;;;5033664;28;4586;-62
2023/10/12 02:42:35;;;;;;;;;;;;;;;;;;5033024;28;4624;-62
2023/10/12 02:45:21;;;;;;;;;;;;;;;;;;5020667;28;5060;-62
2023/10/12 02:48:06;;;;;;;;;;;;;;;;;;5035225;28;4823;-62
2023/10/12 02:50:38;;;;;;;;;;;;;;;;;;5023124;28;4914;-63
2023/10/12 02:53:11;;;;;;;;;;;;;;;;;;5023628;28;1144;-62
2023/10/12 02:58:44;;;;;;;;;;;;;;;;;;5014338;28;4467;-62
2023/10/12 03:01:13;;;;;;;;;;;;;;;;;;5013835;28;5137;-62
2023/10/12 03:03:54;;;;;;;;;;;;;;;;;;5014294;28;4627;-62
2023/10/12 03:06:31;;;;;;;;;;;;;;;;;;5013830;28;4416;-61
2023/10/12 03:17:45;;;;;;;;;;;;;;;;;;5033580;28;4461;-63
2023/10/12 03:20:22;;;;;;;;;;;;;;;;;;5034232;28;879;-62
2023/10/12 03:22:52;;;;;;;;;;;;;;;;;;5027284;28;5498;-62
2023/10/12 03:25:36;;;;;;;;;;;;;;;;;;5014245;28;4489;-62
2023/10/12 03:28:11;;;;;;;;;;;;;;;;;;5006391;28;4702;-62
2023/10/12 03:30:43;;;;;;;;;;;;;;;;;;5018880;28;5057;-62
2023/10/12 03:36:36;;;;;;;;;;;;;;;;;;5033860;28;5118;-62
2023/10/12 03:39:14;;;;;;;;;;;;;;;;;;5018317;28;4851;-63
2023/10/12 03:44:35;;;;;;;;;;;;;;;;;;5034007;28;2790;-62
2023/10/12 03:47:24;;;;;;;;;;;;;;;;;;5053981;28;4655;-62
2023/10/12 03:52:27;;;;;;;;;;;;;;;;;;5071537;28;5241;-62
2023/10/12 03:58:07;;;;;;;;;;;;;;;;;;5057278;28;5023;-62
2023/10/12 04:03:37;;;;;;;;;;;;;;;;;;5055968;28;4606;-62
2023/10/12 04:09:14;;;;;;;;;;;;;;;;;;5056846;28;5212;-62
2023/10/12 04:11:48;;;;;;;;;;;;;;;;;;5056714;28;4463;-62
2023/10/12 04:16:45;;;;;;;;;;;;;;;;;;5056349;28;4338;-62
2023/10/12 04:19:10;;;;;;;;;;;;;;;;;;5056555;28;4950;-62
2023/10/12 04:21:50;;;;;;;;;;;;;;;;;;5056322;28;5004;-62
2023/10/12 04:44:03;;;;;;;;;;;;;;;;;;5025417;28;4432;-62
2023/10/12 04:46:38;;;;;;;;;;;;;;;;;;5033628;28;5015;-62
2023/10/12 04:57:28;;;;;;;;;;;;;;;;;;5029988;28;5082;-64
2023/10/12 05:02:59;;;;;;;;;;;;;;;;;;5029073;28;4685;-64
2023/10/12 05:07:58;;;;;;;;;;;;;;;;;;5055566;28;927;-62
2023/10/12 05:13:05;;;;;;;;;;;;;;;;;;5018469;28;4481;-62
2023/10/12 05:15:42;;;;;;;;;;;;;;;;;;5028488;28;4620;-62
2023/10/12 05:27:38;;;;;;;;;;;;;;;;;;5033968;28;4990;-63
2023/10/12 05:35:59;;;;;;;;;;;;;;;;;;5049199;28;4857;-62
2023/10/12 05:38:34;;;;;;;;;;;;;;;;;;5030039;28;5143;-63
2023/10/12 05:43:58;;;;;;;;;;;;;;;;;;5017651;28;5855;-63
2023/10/12 05:46:29;;;;;;;;;;;;;;;;;;5045815;28;4995;-63
2023/10/12 05:48:54;;;;;;;;;;;;;;;;;;5032920;28;4596;-63
2023/10/12 05:51:21;;;;;;;;;;;;;;;;;;5031568;28;4830;-66
2023/10/12 05:53:48;;;;;;;;;;;;;;;;;;5043109;28;4941;-63
2023/10/12 05:56:17;;;;;;;;;;;;;;;;;;5017209;28;1271;-63
2023/10/12 05:59:12;;;;;;;;;;;;;;;;;;5015605;28;5237;-61
2023/10/12 06:01:38;;;;;;;;;;;;;;;;;;5015474;28;5189;-62
2023/10/12 06:04:05;;;;;;;;;;;;;;;;;;5048344;28;4598;-62
2023/10/12 06:07:05;;;;;;;;;;;;;;;;;;5019777;28;5080;-63
2023/10/12 06:09:37;;;;;;;;;;;;;;;;;;5048924;28;5105;-62
2023/10/12 06:15:09;;;;;;;;;;;;;;;;;;5011583;28;5080;-62
2023/10/12 06:17:39;;;;;;;;;;;;;;;;;;5015023;28;4961;-62
2023/10/12 06:20:11;;;;;;;;;;;;;;;;;;5018930;28;2578;-62
2023/10/12 06:25:33;;;;;;;;;;;;;;;;;;5021158;28;5054;-61
2023/10/12 06:28:23;;;;;;;;;;;;;;;;;;5014832;28;5033;-60
2023/10/12 06:30:50;;;;;;;;;;;;;;;;;;5016659;28;5074;-60
2023/10/12 06:33:17;;;;;;;;;;;;;;;;;;5022287;28;5136;-60
2023/10/12 06:36:01;;;;;;;;;;;;;;;;;;5023585;28;4790;-60
2023/10/12 06:41:26;;;;;;;;;;;;;;;;;;5046890;28;1100;-60
2023/10/12 06:46:57;;;;;;;;;;;;;;;;;;5040367;28;4585;-60
2023/10/12 06:49:29;;;;;;;;;;;;;;;;;;5023690;28;5084;-60
2023/10/12 06:52:00;;;;;;;;;;;;;;;;;;5015576;28;5149;-60
2023/10/12 06:54:32;;;;;;;;;;;;;;;;;;5019707;28;4460;-60
2023/10/12 07:02:28;;;;;;;;;;;;;;;;;;5031460;28;5051;-62
2023/10/12 07:07:58;;;;;;;;;;;;;;;;;;5030390;28;4572;-61
2023/10/12 07:13:26;;;;;;;;;;;;;;;;;;5032332;28;4565;-61
2023/10/12 07:16:16;;;;;;;;;;;;;;;;;;5030869;28;5034;-60
2023/10/12 07:18:59;;;;;;;;;;;;;;;;;;5010545;28;5019;-60
2023/10/12 07:24:38;;;;;;;;;;;;;;;;;;5033091;28;5390;-61
2023/10/12 07:27:48;;;;;;;;;;;;;;;;;;5036715;28;4464;-61
2023/10/12 07:35:53;;;;;;;;;;;;;;;;;;5016887;28;5123;-61
2023/10/12 07:38:35;;;;;;;;;;;;;;;;;;5014853;28;5259;-61
2023/10/12 07:41:00;;;;;;;;;;;;;;;;;;5035731;28;1111;-62
2023/10/12 07:43:26;;;;;;;;;;;;;;;;;;5028208;28;4906;-61
2023/10/12 07:45:51;;;;;;;;;;;;;;;;;;5046770;28;5082;-61
2023/10/12 07:48:45;;;;;;;;;;;;;;;;;;5037221;28;5008;-61
2023/10/12 07:51:26;;;;;;;;;;;;;;;;;;5013630;28;4479;-61
2023/10/12 07:56:47;;;;;;;;;;;;;;;;;;5020359;28;5097;-61
2023/10/12 07:59:16;;;;;;;;;;;;;;;;;;5029369;28;1320;-61
2023/10/12 08:01:50;;;;;;;;;;;;;;;;;;5034721;28;5096;-62
2023/10/12 08:07:28;;;;;;;;;;;;;;;;;;5046547;28;4515;-61
2023/10/12 08:10:09;;;;;;;;;;;;;;;;;;5033004;28;5142;-61
2023/10/12 08:12:36;;;;;;;;;;;;;;;;;;5018453;28;4482;-61
2023/10/12 08:15:09;;;;;;;;;;;;;;;;;;5028079;28;4621;-61
2023/10/12 08:23:58;;;;;;;;;;;;;;;;;;5014349;28;5525;-60
2023/10/12 08:32:57;;;;;;;;;;;;;;;;;;5037522;28;5096;-61
2023/10/12 08:35:55;;;;;;;;;;;;;;;;;;5017177;28;5242;-60
2023/10/12 08:38:52;;;;;;;;;;;;;;;;;;5020088;28;5084;-60
2023/10/12 08:41:58;;;;;;;;;;;;;;;;;;5027653;28;5045;-60
2023/10/12 08:47:27;;;;;;;;;;;;;;;;;;5055685;28;4448;-61
2023/10/12 08:50:04;;;;;;;;;;;;;;;;;;5021217;28;1069;-61
2023/10/12 08:52:32;;;;;;;;;;;;;;;;;;5015281;28;5276;-62
2023/10/12 09:01:10;;;;;;;;;;;;;;;;;;5025910;28;4502;-60
2023/10/12 09:03:44;;;;;;;;;;;;;;;;;;5032079;28;5123;-61
2023/10/12 09:06:29;;;;;;;;;;;;;;;;;;5035236;28;4468;-60
2023/10/12 09:12:12;;;;;;;;;;;;;;;;;;5033950;28;4992;-61
2023/10/12 09:14:43;;;;;;;;;;;;;;;;;;5035615;28;4698;-63
2023/10/12 09:17:09;;;;;;;;;;;;;;;;;;5035650;28;1135;-63
2023/10/12 09:19:38;;;;;;;;;;;;;;;;;;5050630;28;4985;-63
2023/10/12 09:22:04;;;;;;;;;;;;;;;;;;5018271;28;4582;-65
2023/10/12 09:24:35;;;;;;;;;;;;;;;;;;5022319;28;5182;-62
2023/10/12 09:27:12;;;;;;;;;;;;;;;;;;5016071;28;4775;-64
2023/10/12 09:32:25;;;;;;;;;;;;;;;;;;5018281;28;5078;-64
2023/10/12 09:37:21;;;;;;;;;;;;;;;;;;5041950;28;4956;-63
2023/10/12 09:43:06;;;;;;;;;;;;;;;;;;5018228;28;5115;-56
2023/10/12 09:45:39;;;;;;;;;;;;;;;;;;5040102;28;5042;-59
2023/10/12 09:48:11;;;;;;;;;;;;;;;;;;5019736;28;4511;-57
2023/10/12 09:50:36;;;;;;;;;;;;;;;;;;5034334;28;4945;-58
2023/10/12 09:53:12;;;;;;;;;;;;;;;;;;5016602;28;1152;-58
2023/10/12 09:55:45;;;;;;;;;;;;;;;;;;5024321;28;4968;-57
2023/10/12 09:58:22;;;;;;;;;;;;;;;;;;5031142;28;5023;-57
2023/10/12 10:00:55;;;;;;;;;;;;;;;;;;5019461;28;4909;-58
2023/10/12 10:03:21;;;;;;;;;;;;;;;;;;5034187;28;4999;-57
2023/10/12 10:05:52;;;;;;;;;;;;;;;;;;5022694;28;4917;-56
2023/10/12 10:08:18;;;;;;;;;;;;;;;;;;5021709;28;5116;-57
2023/10/12 10:10:45;;;;;;;;;;;;;;;;;;5037998;28;1208;-57
2023/10/12 10:13:12;;;;;;;;;;;;;;;;;;5030104;28;5036;-57
2023/10/12 10:15:56;;;;;;;;;;;;;;;;;;5016767;28;5144;-57
2023/10/12 10:18:31;;;;;;;;;;;;;;;;;;5019910;28;5341;-57
2023/10/12 10:20:56;;;;;;;;;;;;;;;;;;5022366;28;5359;-57
2023/10/12 10:26:30;;;;;;;;;;;;;;;;;;5036307;28;5129;-58
2023/10/12 10:29:05;;;;;;;;;;;;;;;;;;5031677;28;1116;-58
2023/10/12 10:31:37;;;;;;;;;;;;;;;;;;5029141;28;4965;-57
2023/10/12 10:34:06;;;;;;;;;;;;;;;;;;5027823;28;4668;-57
2023/10/12 10:36:34;;;;;;;;;;;;;;;;;;5026859;28;4874;-57
2023/10/12 10:39:08;;;;;;;;;;;;;;;;;;5040129;28;6056;-57
2023/10/12 10:41:54;;;;;;;;;;;;;;;;;;5017147;28;5264;-58
2023/10/12 10:44:21;;;;;;;;;;;;;;;;;;5024395;28;4514;-57
2023/10/12 10:46:57;;;;;;;;;;;;;;;;;;5042204;28;1026;-58
2023/10/12 10:49:24;;;;;;;;;;;;;;;;;;5039827;28;5082;-58
2023/10/12 10:52:38;;;;;;;;;;;;;;;;;;5026360;28;4905;-58
2023/10/12 10:54:39;;;;;;;;;;;;;;;;;;5021164;28;4998;-57
2023/10/12 10:57:14;;;;;;;;;;;;;;;;;;5020405;28;4470;-59
2023/10/12 10:59:47;;;;;;;;;;;;;;;;;;5032291;28;5040;-58
2023/10/12 11:02:13;;;;;;;;;;;;;;;;;;5036065;28;971;-59
2023/10/12 11:07:50;;;;;;;;;;;;;;;;;;5036164;28;5025;-57
2023/10/12 11:11:14;;;;;;;;;;;;;;;;;;5030168;28;4977;-57
2023/10/12 11:13:19;;;;;;;;;;;;;;;;;;5034737;28;4668;-58
2023/10/12 11:15:44;;;;;;;;;;;;;;;;;;5045474;28;4658;-58
2023/10/12 11:18:17;;;;;;;;;;;;;;;;;;5037710;28;5497;-58
2023/10/12 11:29:51;;;;;;;;;;;;;;;;;;5021273;28;5094;-58
2023/10/12 11:32:20;;;;;;;;;;;;;;;;;;5028240;28;1023;-58
2023/10/12 11:34:54;;;;;;;;;;;;;;;;;;5034846;28;5092;-58
2023/10/12 11:37:20;;;;;;;;;;;;;;;;;;5015949;28;4984;-58
2023/10/12 11:39:45;;;;;;;;;;;;;;;;;;5030203;28;5759;-58
2023/10/12 11:42:14;;;;;;;;;;;;;;;;;;5037081;28;5058;-58
2023/10/12 11:59:52;;;;;;;;;;;;;;;;;;5028940;28;4532;-57
2023/10/12 12:02:18;;;;;;;;;;;;;;;;;;5019513;28;5025;-55
2023/10/12 12:20:15;;;;;;;;;;;;;;;;;;5020332;28;4981;-56
2023/10/12 12:22:43;;;;;;;;;;;;;;;;;;5040789;28;4984;-56
2023/10/12 12:25:30;;;;;;;;;;;;;;;;;;5028562;28;5185;-57
2023/10/12 12:27:59;;;;;;;;;;;;;;;;;;5026870;28;5153;-56
2023/10/12 12:30:32;;;;;;;;;;;;;;;;;;5034803;28;4723;-57
2023/10/12 12:33:16;;;;;;;;;;;;;;;;;;5019030;28;4925;-58
2023/10/12 12:35:44;;;;;;;;;;;;;;;;;;5015863;28;4867;-57
2023/10/12 12:38:28;;;;;;;;;;;;;;;;;;5019978;28;1098;-57
2023/10/12 12:43:59;;;;;;;;;;;;;;;;;;5023765;28;4591;-57
2023/10/12 12:46:24;;;;;;;;;;;;;;;;;;5031511;28;4946;-57
2023/10/12 12:48:50;;;;;;;;;;;;;;;;;;5021269;28;4668;-58
2023/10/12 12:51:15;;;;;;;;;;;;;;;;;;5026838;28;5018;-57
2023/10/12 12:54:02;;;;;;;;;;;;;;;;;;5037210;28;4910;-57
2023/10/12 12:56:27;;;;;;;;;;;;;;;;;;5014224;28;5084;-56
2023/10/12 12:58:54;;;;;;;;;;;;;;;;;;5034691;28;1066;-57
2023/10/12 13:01:23;;;;;;;;;;;;;;;;;;5026938;28;5006;-57
2023/10/12 13:03:48;;;;;;;;;;;;;;;;;;5018658;28;5191;-57
2023/10/12 13:06:16;;;;;;;;;;;;;;;;;;5023912;28;4892;-56
2023/10/12 13:08:41;;;;;;;;;;;;;;;;;;5039177;28;4759;-56
2023/10/12 13:11:09;;;;;;;;;;;;;;;;;;5030239;28;1450;-57
2023/10/12 13:13:35;;;;;;;;;;;;;;;;;;5044388;28;5085;-56
2023/10/12 13:22:06;;;;;;;;;;;;;;;;;;5029012;28;4412;-56
2023/10/12 13:24:35;;;;;;;;;;;;;;;;;;5044127;28;4895;-56
2023/10/12 13:27:08;;;;;;;;;;;;;;;;;;5018576;28;4889;-56
2023/10/12 13:41:40;;;;;;;;;;;;;;;;;;5015274;28;5010;-58
2023/10/12 13:44:05;;;;;;;;;;;;;;;;;;5014460;28;1973;-58
2023/10/12 13:46:31;;;;;;;;;;;;;;;;;;5034255;28;4416;-58
2023/10/12 13:48:56;;;;;;;;;;;;;;;;;;5030123;28;5018;-58
2023/10/12 13:51:30;;;;;;;;;;;;;;;;;;5032088;28;4957;-57
2023/10/12 13:53:55;;;;;;;;;;;;;;;;;;5033277;28;4505;-57
2023/10/12 13:56:28;;;;;;;;;;;;;;;;;;5026036;28;5154;-57
2023/10/12 13:58:57;;;;;;;;;;;;;;;;;;5016864;28;2474;-56
2023/10/12 14:01:23;;;;;;;;;;;;;;;;;;5024488;28;4388;-57
2023/10/12 14:04:00;;;;;;;;;;;;;;;;;;5022788;28;5155;-57
2023/10/12 14:06:42;;;;;;;;;;;;;;;;;;5035183;28;5169;-57
2023/10/12 14:09:11;;;;;;;;;;;;;;;;;;5017038;28;5113;-57
2023/10/12 14:11:36;;;;;;;;;;;;;;;;;;5012140;28;4489;-57
2023/10/12 14:14:21;;;;;;;;;;;;;;;;;;5027787;28;1151;-58
2023/10/12 14:16:46;;;;;;;;;;;;;;;;;;5007539;28;5178;-57
2023/10/12 14:22:22;;;;;;;;;;;;;;;;;;5024921;28;5045;-57
2023/10/12 14:24:53;;;;;;;;;;;;;;;;;;5016333;28;4578;-57
2023/10/12 14:27:21;;;;;;;;;;;;;;;;;;5021872;28;5368;-57
2023/10/12 14:29:47;;;;;;;;;;;;;;;;;;5032216;28;5238;-57
2023/10/12 14:32:13;;;;;;;;;;;;;;;;;;5030882;28;3328;-63
2023/10/12 14:34:39;;;;;;;;;;;;;;;;;;5028235;28;5011;-65
2023/10/12 14:37:13;;;;;;;;;;;;;;;;;;5026434;28;4882;-65
2023/10/12 14:39:38;;;;;;;;;;;;;;;;;;5039608;28;5091;-65
2023/10/12 14:42:06;;;;;;;;;;;;;;;;;;5035541;28;4964;-65
2023/10/12 14:44:33;;;;;;;;;;;;;;;;;;5029489;28;5022;-64
2023/10/12 14:47:04;;;;;;;;;;;;;;;;;;5048155;28;1112;-65
2023/10/12 14:50:05;;;;;;;;;;;;;;;;;;5030923;28;4418;-65
2023/10/12 14:52:38;;;;;;;;;;;;;;;;;;5022162;28;5101;-65
2023/10/12 14:55:05;;;;;;;;;;;;;;;;;;5030600;28;5146;-61
2023/10/12 15:01:03;;;;;;;;;;;;;;;;;;5019589;28;4904;-68
2023/10/12 15:03:34;;;;;;;;;;;;;;;;;;5015180;28;5050;-59
2023/10/12 15:09:03;;;;;;;;;;;;;;;;;;5024281;28;5102;-67
2023/10/12 15:11:30;;;;;;;;;;;;;;;;;;5029112;28;5076;-60
2023/10/12 15:13:56;;;;;;;;;;;;;;;;;;5025885;28;3294;-59
2023/10/12 15:16:30;;;;;;;;;;;;;;;;;;5026514;28;5165;-60
2023/10/12 15:18:57;;;;;;;;;;;;;;;;;;5019998;28;5182;-60
2023/10/12 15:21:23;;;;;;;;;;;;;;;;;;5022083;28;5229;-59
2023/10/12 15:23:49;;;;;;;;;;;;;;;;;;5014055;28;4654;-60
2023/10/12 15:26:16;;;;;;;;;;;;;;;;;;5028658;28;3247;-59
2023/10/12 15:28:47;;;;;;;;;;;;;;;;;;5005050;28;4993;-60
2023/10/12 15:31:16;;;;;;;;;;;;;;;;;;5010402;28;4448;-59
2023/10/12 15:33:41;;;;;;;;;;;;;;;;;;5020917;28;4453;-57
2023/10/12 15:36:07;;;;;;;;;;;;;;;;;;5029074;28;5168;-55
2023/10/12 15:38:42;;;;;;;;;;;;;;;;;;5015909;28;4785;-56
2023/10/12 15:41:07;;;;;;;;;;;;;;;;;;5022554;28;1653;-56
2023/10/12 15:43:32;;;;;;;;;;;;;;;;;;5034736;28;5064;-56
2023/10/12 15:45:58;;;;;;;;;;;;;;;;;;5038788;28;5061;-56
2023/10/12 15:48:26;;;;;;;;;;;;;;;;;;5038526;28;4951;-55
2023/10/12 15:50:52;;;;;;;;;;;;;;;;;;5028062;28;5170;-56
2023/10/12 15:53:21;;;;;;;;;;;;;;;;;;5033018;28;1271;-56
2023/10/12 15:55:48;;;;;;;;;;;;;;;;;;5030533;28;5023;-56
2023/10/12 16:04:53;;;;;;;;;;;;;;;;;;5022239;28;4916;-55
2023/10/12 16:07:18;;;;;;;;;;;;;;;;;;5019093;28;4571;-56
2023/10/12 16:09:47;;;;;;;;;;;;;;;;;;5020377;28;4667;-56
2023/10/12 16:12:17;;;;;;;;;;;;;;;;;;5013794;28;5099;-56
2023/10/12 16:14:43;;;;;;;;;;;;;;;;;;5021427;28;4841;-59
2023/10/12 16:17:08;;;;;;;;;;;;;;;;;;5019680;28;2542;-55
2023/10/12 16:19:33;;;;;;;;;;;;;;;;;;5030637;28;5055;-56
2023/10/12 16:21:59;;;;;;;;;;;;;;;;;;5032880;28;4946;-56
2023/10/12 16:24:24;;;;;;;;;;;;;;;;;;5020007;28;5072;-56
2023/10/12 16:26:49;;;;;;;;;;;;;;;;;;5036547;28;5084;-58
2023/10/12 16:29:15;;;;;;;;;;;;;;;;;;5016461;28;989;-56
2023/10/12 16:31:40;;;;;;;;;;;;;;;;;;5016180;28;5114;-56
2023/10/12 16:34:08;;;;;;;;;;;;;;;;;;5029185;28;5097;-56
2023/10/12 16:36:33;;;;;;;;;;;;;;;;;;5016041;28;4824;-56
2023/10/12 16:42:02;;;;;;;;;;;;;;;;;;5012537;28;4999;-60
2023/10/12 16:44:28;;;;;;;;;;;;;;;;;;5021097;28;5246;-59
2023/10/12 16:46:56;;;;;;;;;;;;;;;;;;5034752;28;3072;-59
2023/10/12 16:49:27;;;;;;;;;;;;;;;;;;5035816;28;4548;-59
2023/10/12 16:52:08;;;;;;;;;;;;;;;;;;5023710;28;5079;-65
2023/10/12 16:54:35;;;;;;;;;;;;;;;;;;5014091;28;4771;-63
2023/10/12 16:57:00;;;;;;;;;;;;;;;;;;5016813;28;5041;-64
2023/10/12 16:59:26;;;;;;;;;;;;;;;;;;5017247;28;5000;-61
2023/10/12 17:01:54;;;;;;;;;;;;;;;;;;5022543;28;1227;-61
2023/10/12 17:04:29;;;;;;;;;;;;;;;;;;5024004;28;5016;-60
2023/10/12 17:06:55;;;;;;;;;;;;;;;;;;5031899;28;5028;-58
2023/10/12 17:09:23;;;;;;;;;;;;;;;;;;5035394;28;4737;-61
2023/10/12 17:11:50;;;;;;;;;;;;;;;;;;5048218;28;5193;-57
2023/10/12 17:20:15;;;;;;;;;;;;;;;;;;5015582;28;1276;-56
2023/10/12 17:22:41;;;;;;;;;;;;;;;;;;5030722;28;4997;-56
2023/10/12 17:25:09;;;;;;;;;;;;;;;;;;5026594;28;4787;-56
2023/10/12 17:27:35;;;;;;;;;;;;;;;;;;5027406;28;4442;-55
2023/10/12 17:30:03;;;;;;;;;;;;;;;;;;5032743;28;5125;-56
2023/10/12 17:32:28;;;;;;;;;;;;;;;;;;5022797;28;4571;-56
2023/10/12 17:34:53;;;;;;;;;;;;;;;;;;5025995;28;1096;-56
2023/10/12 17:46:29;;;;;;;;;;;;;;;;;;5033113;28;4766;-56
2023/10/12 17:48:55;;;;;;;;;;;;;;;;;;5034868;28;5032;-57
2023/10/12 17:51:21;;;;;;;;;;;;;;;;;;5033114;28;4969;-57
2023/10/12 17:56:49;;;;;;;;;;;;;;;;;;5037601;28;5113;-56
2023/10/12 17:59:17;;;;;;;;;;;;;;;;;;5034911;28;1071;-57
2023/10/12 18:01:47;;;;;;;;;;;;;;;;;;5013473;28;4951;-57
2023/10/12 18:04:12;;;;;;;;;;;;;;;;;;5014463;28;4952;-56
2023/10/12 18:06:38;;;;;;;;;;;;;;;;;;5014721;28;4440;-57
2023/10/12 18:09:04;;;;;;;;;;;;;;;;;;5019225;28;4955;-56
2023/10/12 18:11:30;;;;;;;;;;;;;;;;;;5031058;28;4498;-56
2023/10/12 18:13:55;;;;;;;;;;;;;;;;;;5053651;28;1320;-57
2023/10/12 18:19:23;;;;;;;;;;;;;;;;;;5032902;28;4953;-56
2023/10/12 18:21:50;;;;;;;;;;;;;;;;;;5034163;28;4894;-56
2023/10/12 18:24:16;;;;;;;;;;;;;;;;;;5036870;28;5207;-57
2023/10/12 18:26:41;;;;;;;;;;;;;;;;;;5012816;28;4985;-57
2023/10/12 18:44:51;;;;;;;;;;;;;;;;;;5024718;28;5042;-57
2023/10/12 18:56:24;;;;;;;;;;;;;;;;;;5054208;28;5251;-57
2023/10/12 18:58:50;;;;;;;;;;;;;;;;;;5036698;28;1362;-57
2023/10/12 19:01:16;;;;;;;;;;;;;;;;;;5023753;28;5132;-56
2023/10/12 19:03:42;;;;;;;;;;;;;;;;;;5027720;28;5129;-56
2023/10/12 19:06:10;;;;;;;;;;;;;;;;;;5024514;28;4987;-57
2023/10/12 19:08:35;;;;;;;;;;;;;;;;;;5043923;28;5067;-56
2023/10/12 19:11:01;;;;;;;;;;;;;;;;;;5040833;28;1190;-56
2023/10/12 19:13:27;;;;;;;;;;;;;;;;;;5010871;28;4857;-56
2023/10/12 19:15:52;;;;;;;;;;;;;;;;;;5016950;28;4836;-56
2023/10/12 19:18:18;;;;;;;;;;;;;;;;;;5033863;28;4763;-56
2023/10/12 19:20:43;;;;;;;;;;;;;;;;;;5034950;28;4675;-56
2023/10/12 19:23:09;;;;;;;;;;;;;;;;;;5033534;28;1865;-57
2023/10/12 19:26:05;;;;;;;;;;;;;;;;;;5034130;28;5102;-56
2023/10/12 19:28:30;;;;;;;;;;;;;;;;;;5026952;28;4532;-56
2023/10/12 19:30:56;;;;;;;;;;;;;;;;;;5020161;28;5252;-55
2023/10/12 19:33:22;;;;;;;;;;;;;;;;;;5001763;28;5117;-56
2023/10/12 19:35:48;;;;;;;;;;;;;;;;;;5022063;28;4980;-56
2023/10/12 19:38:14;;;;;;;;;;;;;;;;;;5017955;28;1751;-56
2023/10/12 19:40:41;;;;;;;;;;;;;;;;;;5011079;28;4438;-55
2023/10/12 19:43:07;;;;;;;;;;;;;;;;;;5034454;28;5096;-56
2023/10/12 19:45:34;;;;;;;;;;;;;;;;;;5022238;28;5086;-55
2023/10/12 19:48:02;;;;;;;;;;;;;;;;;;5018578;28;4704;-55
2023/10/12 19:50:27;;;;;;;;;;;;;;;;;;5016016;28;5100;-55
2023/10/12 19:52:59;;;;;;;;;;;;;;;;;;5036516;28;1398;-55
2023/10/12 19:55:25;;;;;;;;;;;;;;;;;;5025518;28;5026;-56
2023/10/12 19:57:53;;;;;;;;;;;;;;;;;;5035763;28;5034;-55
2023/10/12 20:03:08;;;;;;;;;;;;;;;;;;5025305;28;5476;-56
2023/10/12 20:05:37;;;;;;;;;;;;;;;;;;5035839;28;5106;-55
2023/10/12 20:08:04;;;;;;;;;;;;;;;;;;5035280;28;2599;-55
2023/10/12 20:10:29;;;;;;;;;;;;;;;;;;5020411;28;4975;-55
2023/10/12 20:12:56;;;;;;;;;;;;;;;;;;5016876;28;5355;-60
2023/10/12 20:15:36;;;;;;;;;;;;;;;;;;5014650;28;4935;-60
2023/10/12 20:18:19;;;;;;;;;;;;;;;;;;5018309;28;5116;-60
2023/10/12 20:26:50;;;;;;;;;;;;;;;;;;5015614;28;5122;-60
2023/10/12 20:32:47;;;;;;;;;;;;;;;;;;5026773;28;5097;-59
2023/10/12 20:35:12;;;;;;;;;;;;;;;;;;5037639;28;1322;-59
2023/10/12 20:37:38;;;;;;;;;;;;;;;;;;5040320;28;4900;-59
2023/10/12 20:40:08;;;;;;;;;;;;;;;;;;5028915;28;4706;-59
2023/10/12 20:45:37;;;;;;;;;;;;;;;;;;5016687;28;5214;-59
2023/10/12 20:51:05;;;;;;;;;;;;;;;;;;5016057;28;5152;-59
2023/10/12 20:53:33;;;;;;;;;;;;;;;;;;5015925;28;4948;-60
2023/10/12 20:56:05;;;;;;;;;;;;;;;;;;5015461;28;1195;-60
2023/10/12 21:01:45;;;;;;;;;;;;;;;;;;5016421;28;5001;-59
2023/10/12 21:04:12;;;;;;;;;;;;;;;;;;5015839;28;5050;-59
2023/10/12 21:06:38;;;;;;;;;;;;;;;;;;5015350;28;4944;-59
2023/10/12 21:09:04;;;;;;;;;;;;;;;;;;5016165;28;4419;-60
2023/10/12 21:14:41;;;;;;;;;;;;;;;;;;5015794;28;5053;-59
2023/10/12 21:17:07;;;;;;;;;;;;;;;;;;5016371;28;966;-59
2023/10/12 21:19:40;;;;;;;;;;;;;;;;;;5015543;28;4958;-60
2023/10/12 21:22:09;;;;;;;;;;;;;;;;;;5015980;28;5063;-60
2023/10/12 21:24:37;;;;;;;;;;;;;;;;;;5015659;28;4953;-60
2023/10/12 21:27:06;;;;;;;;;;;;;;;;;;5015353;28;5043;-59
2023/10/12 21:32:39;;;;;;;;;;;;;;;;;;5015339;28;4385;-60
2023/10/12 21:35:07;;;;;;;;;;;;;;;;;;5014143;28;2486;-60
2023/10/12 21:37:35;;;;;;;;;;;;;;;;;;5015408;28;5084;-60
2023/10/12 21:40:19;;;;;;;;;;;;;;;;;;5015423;28;5038;-60
2023/10/12 21:45:50;;;;;;;;;;;;;;;;;;5015375;28;4891;-60
2023/10/12 21:48:16;;;;;;;;;;;;;;;;;;5015393;28;5005;-60
2023/10/12 21:50:41;;;;;;;;;;;;;;;;;;5015686;28;4943;-60
2023/10/12 21:53:09;;;;;;;;;;;;;;;;;;5030673;28;1010;-59
2023/10/12 21:55:54;;;;;;;;;;;;;;;;;;5015530;28;4950;-59
2023/10/12 21:58:20;;;;;;;;;;;;;;;;;;5015036;28;5037;-60
2023/10/12 22:00:49;;;;;;;;;;;;;;;;;;5014984;28;4980;-59
2023/10/12 22:03:19;;;;;;;;;;;;;;;;;;5024646;28;4728;-59
2023/10/12 22:05:45;;;;;;;;;;;;;;;;;;5012112;28;5052;-60
2023/10/12 22:08:43;;;;;;;;;;;;;;;;;;5016884;28;3291;-59
2023/10/12 22:11:13;;;;;;;;;;;;;;;;;;5009463;28;5388;-61
2023/10/12 22:13:54;;;;;;;;;;;;;;;;;;5032693;28;4530;-60
2023/10/12 22:22:24;;;;;;;;;;;;;;;;;;5034285;28;5146;-60
2023/10/12 22:24:49;;;;;;;;;;;;;;;;;;5024681;28;5099;-59
2023/10/12 22:27:16;;;;;;;;;;;;;;;;;;5012670;28;5135;-60
2023/10/12 22:29:43;;;;;;;;;;;;;;;;;;5027793;28;5249;-60
2023/10/12 22:32:08;;;;;;;;;;;;;;;;;;5033218;28;2483;-59
2023/10/12 22:34:33;;;;;;;;;;;;;;;;;;5015880;28;5095;-60
2023/10/12 22:36:58;;;;;;;;;;;;;;;;;;5015162;28;4977;-60
2023/10/12 22:39:31;;;;;;;;;;;;;;;;;;5032594;28;5048;-60
2023/10/12 22:41:57;;;;;;;;;;;;;;;;;;5025639;28;4505;-60
2023/10/12 22:44:22;;;;;;;;;;;;;;;;;;5031534;28;5233;-60
2023/10/12 22:52:47;;;;;;;;;;;;;;;;;;5023092;28;6354;-60
2023/10/12 22:55:12;;;;;;;;;;;;;;;;;;5034207;28;4985;-60
2023/10/12 22:57:37;;;;;;;;;;;;;;;;;;5029229;28;5383;-59
2023/10/12 23:03:05;;;;;;;;;;;;;;;;;;5034749;28;5050;-59
2023/10/12 23:05:31;;;;;;;;;;;;;;;;;;5031342;28;5049;-60
2023/10/12 23:07:56;;;;;;;;;;;;;;;;;;5040725;28;3336;-60
2023/10/12 23:10:46;;;;;;;;;;;;;;;;;;5036526;28;4832;-60
2023/10/12 23:13:13;;;;;;;;;;;;;;;;;;5018938;28;4968;-60
2023/10/12 23:15:43;;;;;;;;;;;;;;;;;;5021773;28;4892;-60
2023/10/12 23:21:29;;;;;;;;;;;;;;;;;;5026698;28;5227;-60
2023/10/12 23:27:03;;;;;;;;;;;;;;;;;;5020657;28;4715;-60
2023/10/12 23:29:28;;;;;;;;;;;;;;;;;;5025675;28;4756;-62
2023/10/12 23:32:07;;;;;;;;;;;;;;;;;;5023609;28;2483;-60
2023/10/12 23:34:40;;;;;;;;;;;;;;;;;;5029090;28;4941;-60
2023/10/12 23:37:07;;;;;;;;;;;;;;;;;;5037456;28;4812;-60
2023/10/12 23:42:33;;;;;;;;;;;;;;;;;;5010100;28;5307;-61
2023/10/12 23:45:07;;;;;;;;;;;;;;;;;;5022210;28;5493;-60
